Rechercher aéroport 
image banner adimage banner adimage banner ad
image banner ad

0CN1 - Fiorini Ranch

Situé à Delhi, United States

ICAO - 0CN1, IATA -

Données fournies par Airmate  

Information générale

Coordonnées: N37°27'8" W120°45'53"
Élévation : 140 feet MSL.
 
Voir autres Aéroports à California

Données opérationnelles

Special qualification required
Heure actuelle UTC:
Heure actuelle locale:
Météo à : KMER - Castle ( 19 km )
METAR: KMER 262245Z 30004KT 10SM SKC 38/04 A2984
TAF: KMER 261720Z 2618/2718 VRB05KT P6SM BKN250
Voir NOTAMs / SUP AIP / TFR affectant cet aéroport [VIEW]
Fréquences de communication: [VIEW]

Pistes:

Identifiant RWYQFULongueur (ft)Largeur (ft)SurfaceLDA (ft)
16222980ASPH
34222980ASPH

Coordonnées de l'aéroport

Adresse: Delhi United States

Vue satellite de 0CN1